Time;durP1;ratioP1;P1;durP2;ratioP2;P2;SDS_P1;SDS_P2;PMS_P1;PMS_P2;Temp;Humidity;BMP_temperature;BMP_pressure;BME280_temperature;BME280_humidity;BME280_pressure;Samples;Min_cycle;Max_cycle;Signal;HPM_P1;HPM_P2
2022/11/20 00:00:50;;;;;;;43.03;16.48;;;;;;;-2.93;100.00;97990.25;2637853;28;20054;-91
2022/11/20 00:02:08;;;;;;;49.17;17.27;;;;;;;-2.82;100.00;97996.44;2638169;28;20503;-90
2022/11/20 00:03:24;;;;;;;38.63;15.65;;;;;;;-2.86;100.00;97997.22;2638531;28;20047;-90
2022/11/20 00:04:39;;;;;;;41.70;15.38;;;;;;;-2.93;100.00;97996.25;2638666;28;20119;-91
2022/11/20 00:06:00;;;;;;;43.97;16.63;;;;;;;-2.94;100.00;97989.41;2638515;28;20052;-88
2022/11/20 00:07:15;;;;;;;44.88;16.67;;;;;;;-2.93;100.00;97992.81;2638642;28;20048;-90
2022/11/20 00:08:31;;;;;;;45.03;16.58;;;;;;;-3.07;100.00;97985.75;2638094;28;20054;-89
2022/11/20 00:09:46;;;;;;;48.33;17.15;;;;;;;-2.94;100.00;97996.22;2639070;28;20601;-90
2022/11/20 00:11:13;;;;;;;45.28;17.35;;;;;;;-2.95;100.00;97997.03;2638511;28;20118;-90
2022/11/20 00:12:29;;;;;;;39.72;16.30;;;;;;;-3.07;100.00;98000.25;2638566;28;20092;-90
2022/11/20 00:13:46;;;;;;;44.75;16.48;;;;;;;-3.12;100.00;97997.59;2638495;27;20051;-89
2022/11/20 00:15:03;;;;;;;42.88;16.60;;;;;;;-3.10;100.00;98000.19;2638451;28;20386;-90
2022/11/20 00:16:22;;;;;;;43.78;17.35;;;;;;;-3.15;100.00;97995.81;2638338;28;20131;-90
2022/11/20 00:17:37;;;;;;;46.00;17.20;;;;;;;-3.23;100.00;98002.50;2638223;28;20058;-88
2022/11/20 00:18:53;;;;;;;43.60;16.55;;;;;;;-3.07;100.00;98001.13;2637848;28;20485;-91
2022/11/20 00:20:10;;;;;;;44.35;16.58;;;;;;;-2.93;100.00;98006.50;2638710;28;20055;-91
2022/11/20 00:21:27;;;;;;;46.70;17.42;;;;;;;-2.94;100.00;98009.00;2638399;28;20134;-91
2022/11/20 00:22:43;;;;;;;43.70;16.35;;;;;;;-3.20;100.00;98002.56;2638833;28;20047;-90
2022/11/20 00:23:59;;;;;;;41.05;15.38;;;;;;;-3.13;100.00;98003.56;2638060;28;20536;-89
2022/11/20 00:25:14;;;;;;;50.58;17.92;;;;;;;-3.10;100.00;98002.75;2638626;28;20379;-90
2022/11/20 00:26:30;;;;;;;46.88;17.23;;;;;;;-3.06;100.00;97999.41;2638250;28;20096;-89
2022/11/20 00:27:46;;;;;;;42.63;17.05;;;;;;;-2.85;100.00;97998.94;2638496;28;20105;-90
2022/11/20 00:29:02;;;;;;;44.50;16.40;;;;;;;-2.78;100.00;97999.94;2638073;28;20985;-90
2022/11/20 00:30:18;;;;;;;49.25;17.48;;;;;;;-2.81;100.00;97998.16;2638208;28;20052;-90
2022/11/20 00:31:35;;;;;;;49.15;17.73;;;;;;;-2.80;100.00;98002.44;2638059;28;20055;-90
2022/11/20 00:32:50;;;;;;;44.63;16.58;;;;;;;-2.77;100.00;98001.66;2638163;28;20047;-90
2022/11/20 00:34:06;;;;;;;44.28;17.83;;;;;;;-2.74;100.00;97996.56;2638362;28;20409;-90
2022/11/20 00:35:21;;;;;;;50.60;17.35;;;;;;;-2.68;100.00;97999.25;2638607;28;20059;-90
2022/11/20 00:36:37;;;;;;;55.42;18.90;;;;;;;-2.71;100.00;98001.78;2638387;28;20120;-91
2022/11/20 00:37:52;;;;;;;45.05;17.17;;;;;;;-2.73;100.00;97999.19;2638231;28;20047;-90
2022/11/20 00:39:08;;;;;;;48.50;18.08;;;;;;;-2.66;100.00;97997.59;2637411;28;20047;-90
2022/11/20 00:40:24;;;;;;;47.15;17.90;;;;;;;-2.64;100.00;98000.19;2637608;28;20051;-91
2022/11/20 00:41:39;;;;;;;49.70;18.25;;;;;;;-2.78;100.00;98000.81;2638337;28;20094;-91
2022/11/20 00:42:55;;;;;;;55.17;18.83;;;;;;;-2.67;100.00;98002.66;2638002;28;20052;-88
2022/11/20 00:44:10;;;;;;;55.60;18.75;;;;;;;-2.62;100.00;98004.47;2638383;28;20047;-89
2022/11/20 00:45:26;;;;;;;52.88;19.75;;;;;;;-2.74;100.00;98002.56;2637329;28;20081;-90
2022/11/20 00:46:42;;;;;;;50.90;18.27;;;;;;;-2.71;100.00;98002.63;2637990;28;20070;-91
2022/11/20 00:47:57;;;;;;;50.22;18.10;;;;;;;-2.70;100.00;98004.34;2638256;28;20080;-90
2022/11/20 00:49:13;;;;;;;46.90;18.27;;;;;;;-2.53;100.00;98008.06;2638151;28;20097;-89
2022/11/20 00:50:28;;;;;;;46.08;17.33;;;;;;;-2.39;100.00;98001.47;2638333;28;20043;-91
2022/11/20 00:51:44;;;;;;;52.15;19.23;;;;;;;-2.26;100.00;97997.38;2638331;28;20051;-89
2022/11/20 00:52:59;;;;;;;43.75;15.93;;;;;;;-2.45;100.00;98006.47;2638046;28;20047;-89
2022/11/20 00:54:15;;;;;;;50.78;17.50;;;;;;;-2.63;100.00;98002.75;2638155;28;20070;-90
2022/11/20 00:55:30;;;;;;;46.47;16.40;;;;;;;-2.53;100.00;98001.22;2638211;28;20067;-90
2022/11/20 00:56:46;;;;;;;49.97;18.23;;;;;;;-2.65;100.00;98001.88;2637904;28;20478;-90
2022/11/20 00:58:02;;;;;;;43.58;17.42;;;;;;;-2.47;100.00;98001.34;2637778;28;20063;-89
2022/11/20 00:59:17;;;;;;;42.20;17.17;;;;;;;-2.32;100.00;97990.44;2637978;28;20048;-90
2022/11/20 01:00:33;;;;;;;51.20;18.00;;;;;;;-2.19;100.00;97993.22;2637503;28;20040;-90
2022/11/20 01:01:49;;;;;;;50.20;17.77;;;;;;;-2.11;100.00;97990.75;2637656;28;20454;-90
2022/11/20 01:03:05;;;;;;;44.92;17.38;;;;;;;-2.08;100.00;97993.41;2638059;28;20055;-89
2022/11/20 01:04:20;;;;;;;45.40;16.55;;;;;;;-2.19;100.00;97996.66;2639218;28;20731;-91
2022/11/20 01:05:36;;;;;;;50.45;17.92;;;;;;;-2.21;100.00;97992.34;2640071;28;20047;-90
2022/11/20 01:06:51;;;;;;;44.22;15.68;;;;;;;-2.44;100.00;98001.38;2640420;28;20051;-90
2022/11/20 01:08:07;;;;;;;45.28;15.40;;;;;;;-2.36;100.00;97993.81;2639896;28;20043;-90
2022/11/20 01:09:23;;;;;;;48.13;16.67;;;;;;;-2.38;100.00;97997.19;2640269;28;20158;-89
2022/11/20 01:10:38;;;;;;;45.92;17.05;;;;;;;-2.45;100.00;97994.53;2640362;28;20051;-90
2022/11/20 01:11:54;;;;;;;34.45;14.63;;;;;;;-2.51;100.00;97999.56;2640363;28;20080;-90
2022/11/20 01:14:44;;;;;;;42.42;17.02;;;;;;;-2.22;100.00;97994.06;2640305;28;20047;-89
2022/11/20 01:16:30;;;;;;;44.67;16.15;;;;;;;-2.19;100.00;97998.34;2640286;28;20490;-89
2022/11/20 01:17:46;;;;;;;41.38;14.50;;;;;;;-2.31;100.00;97999.03;2638956;28;20885;-90
2022/11/20 01:19:05;;;;;;;43.67;15.88;;;;;;;-2.59;100.00;97998.56;2639879;28;20044;-89
2022/11/20 01:20:20;;;;;;;43.20;16.55;;;;;;;-2.58;100.00;97998.59;2639193;28;20432;-90
2022/11/20 01:21:39;;;;;;;47.05;17.05;;;;;;;-2.51;100.00;97999.56;2639909;28;20043;-90
2022/11/20 01:22:55;;;;;;;43.60;15.85;;;;;;;-2.34;100.00;98001.53;2640017;28;20048;-90
2022/11/20 01:24:12;;;;;;;44.83;15.32;;;;;;;-2.68;100.00;98001.81;2639270;28;20044;-89
2022/11/20 01:25:28;;;;;;;46.72;17.33;;;;;;;-2.71;100.00;98002.63;2639349;28;20043;-90
2022/11/20 01:26:46;;;;;;;41.72;17.00;;;;;;;-2.80;100.00;98002.44;2640146;28;20051;-90
2022/11/20 01:28:02;;;;;;;49.65;17.95;;;;;;;-2.62;100.00;98007.03;2640180;28;20074;-89
2022/11/20 01:29:20;;;;;;;44.38;17.25;;;;;;;-2.67;100.00;98011.25;2640017;28;20409;-89
2022/11/20 01:30:36;;;;;;;41.83;16.60;;;;;;;-2.73;100.00;98005.97;2640267;28;20047;-89
2022/11/20 01:31:52;;;;;;;41.50;16.30;;;;;;;-2.74;100.00;98010.25;2639204;28;20167;-89
2022/11/20 01:33:08;;;;;;;44.35;15.35;;;;;;;-2.71;100.00;98007.75;2639513;28;20051;-90
2022/11/20 01:34:24;;;;;;;47.17;16.55;;;;;;;-2.61;100.00;98006.22;2639201;28;20098;-90
2022/11/20 01:35:40;;;;;;;47.85;16.65;;;;;;;-2.81;100.00;98000.72;2639129;28;20918;-92
2022/11/20 01:36:55;;;;;;;42.22;15.13;;;;;;;-2.51;100.00;98006.38;2639795;28;20052;-90
2022/11/20 01:38:11;;;;;;;45.90;15.98;;;;;;;-2.74;100.00;98000.00;2639652;28;20063;-89
2022/11/20 01:39:27;;;;;;;40.10;16.08;;;;;;;-2.96;100.00;98005.56;2639251;28;20048;-90
2022/11/20 01:40:43;;;;;;;38.58;15.65;;;;;;;-2.80;100.00;98007.56;2639935;28;20123;-90
2022/11/20 01:43:33;;;;;;;42.35;16.23;;;;;;;-2.58;100.00;98001.16;2639760;28;20090;-89
2022/11/20 01:44:59;;;;;;;42.53;16.05;;;;;;;-2.40;100.00;97999.75;2639699;28;20070;-91
2022/11/20 01:46:19;;;;;;;47.30;17.52;;;;;;;-2.33;100.00;97998.13;2639828;28;20096;-92
2022/11/20 01:47:46;;;;;;;39.40;16.05;;;;;;;-2.29;100.00;98003.34;2639687;28;20070;-90
2022/11/20 01:49:19;;;;;;;54.42;18.08;;;;;;;-2.34;100.00;97997.25;2639588;28;20589;-88
2022/11/20 01:50:35;;;;;;;43.20;16.85;;;;;;;-2.31;100.00;97989.63;2639681;28;20050;-89
2022/11/20 01:51:54;;;;;;;39.42;14.70;;;;;;;-2.42;100.00;97991.16;2639664;28;20078;-90
2022/11/20 01:53:14;;;;;;;44.38;15.85;;;;;;;-2.26;100.00;97979.44;2638354;28;20055;-90
2022/11/20 01:54:42;;;;;;;40.65;16.63;;;;;;;-2.20;100.00;97981.22;2639336;28;20106;-91
2022/11/20 01:56:01;;;;;;;47.42;16.67;;;;;;;-2.13;100.00;97976.22;2639608;28;20062;-90
2022/11/20 01:57:19;;;;;;;45.65;17.55;;;;;;;-2.22;100.00;97985.47;2639827;28;20043;-90
2022/11/20 01:58:42;;;;;;;42.90;14.77;;;;;;;-2.18;100.00;97980.44;2639380;28;20052;-92
2022/11/20 02:00:03;;;;;;;49.63;17.05;;;;;;;-2.22;100.00;97978.66;2639800;28;20078;-89
2022/11/20 02:01:20;;;;;;;41.05;16.25;;;;;;;-2.17;100.00;97977.03;2639444;28;20044;-89
2022/11/20 02:02:37;;;;;;;46.15;17.20;;;;;;;-2.14;100.00;97969.38;2639722;28;20094;-89
2022/11/20 02:03:54;;;;;;;45.00;17.20;;;;;;;-2.09;100.00;97973.72;2639201;28;20088;-89
2022/11/20 02:05:31;;;;;;;45.50;17.13;;;;;;;-2.42;100.00;97978.34;2638779;28;20146;-91
2022/11/20 02:06:56;;;;;;;40.95;16.95;;;;;;;-2.18;100.00;97975.31;2639349;28;20043;-90
2022/11/20 02:08:12;;;;;;;39.92;16.65;;;;;;;-2.06;100.00;97972.03;2639731;28;20074;-89
2022/11/20 02:09:28;;;;;;;41.83;15.93;;;;;;;-2.06;100.00;97971.19;2640125;28;20048;-92
2022/11/20 02:10:44;;;;;;;44.63;17.55;;;;;;;-2.04;100.00;97964.38;2638686;28;20051;-90
2022/11/20 02:12:00;;;;;;;44.20;16.92;;;;;;;-2.06;100.00;97961.78;2638830;28;20059;-90
2022/11/20 02:14:50;;;;;;;45.22;17.20;;;;;;;-1.76;100.00;97962.22;2639292;28;20747;-89
2022/11/20 02:16:14;;;;;;;44.13;17.45;;;;;;;-1.72;100.00;97961.41;2638627;28;20254;-89
2022/11/20 02:17:29;;;;;;;43.22;16.90;;;;;;;-2.21;100.00;97961.56;2639548;28;20059;-90
2022/11/20 02:18:46;;;;;;;44.00;17.00;;;;;;;-1.93;100.00;97961.97;2639277;28;20060;-89
2022/11/20 02:20:02;;;;;;;44.70;17.20;;;;;;;-1.90;100.00;97956.88;2639323;28;20051;-88
2022/11/20 02:21:47;;;;;;;45.17;16.98;;;;;;;-2.28;100.00;97961.47;2639476;28;20136;-91
2022/11/20 02:23:11;;;;;;;44.00;15.82;;;;;;;-2.11;100.00;97960.00;2638790;28;20485;-88
2022/11/20 02:24:27;;;;;;;43.03;17.00;;;;;;;-2.07;100.00;97964.34;2638842;28;20047;-90
2022/11/20 02:25:44;;;;;;;39.72;15.60;;;;;;;-2.16;100.00;97965.06;2639248;28;20039;-90
2022/11/20 02:27:09;;;;;;;48.13;18.00;;;;;;;-2.30;100.00;97958.03;2639127;28;20577;-90
2022/11/20 02:28:26;;;;;;;45.78;17.70;;;;;;;-2.16;100.00;97962.50;2639136;28;20478;-91
2022/11/20 02:30:01;;;;;;;41.83;17.33;;;;;;;-2.16;100.00;97963.34;2639368;28;20043;-89
2022/11/20 02:31:17;;;;;;;38.50;14.27;;;;;;;-2.42;100.00;97961.25;2638535;28;20055;-89
2022/11/20 02:32:35;;;;;;;41.33;16.27;;;;;;;-2.20;100.00;97964.16;2638657;28;20498;-90
2022/11/20 02:33:55;;;;;;;45.03;16.25;;;;;;;-2.02;100.00;97952.44;2639269;28;20048;-89
2022/11/20 02:35:19;;;;;;;42.83;16.50;;;;;;;-2.00;100.00;97955.88;2639080;28;20551;-91
2022/11/20 02:36:38;;;;;;;44.85;16.80;;;;;;;-1.92;100.00;97954.31;2639430;28;20097;-90
2022/11/20 02:37:56;;;;;;;40.28;15.82;;;;;;;-2.23;100.00;97947.84;2639223;28;20058;-91
2022/11/20 02:39:16;;;;;;;43.58;17.02;;;;;;;-2.16;100.00;97958.22;2639390;28;20051;-90
2022/11/20 02:40:32;;;;;;;44.70;17.15;;;;;;;-2.12;100.00;97948.88;2639392;28;20048;-90
2022/11/20 02:41:47;;;;;;;43.45;15.80;;;;;;;-2.21;100.00;97946.16;2638514;28;20425;-89
2022/11/20 02:43:03;;;;;;;48.22;17.58;;;;;;;-2.17;100.00;97947.94;2639125;28;20047;-90
2022/11/20 02:44:18;;;;;;;51.58;18.13;;;;;;;-2.05;100.00;97943.00;2640115;28;20048;-89
2022/11/20 02:45:34;;;;;;;44.92;17.33;;;;;;;-2.09;100.00;97941.22;2642082;28;20051;-88
2022/11/20 02:46:50;;;;;;;45.80;18.38;;;;;;;-2.22;100.00;97936.75;2642087;28;20105;-89
2022/11/20 02:48:07;;;;;;;47.58;17.65;;;;;;;-1.99;100.00;97935.41;2642328;28;20044;-89
2022/11/20 02:49:22;;;;;;;48.00;17.98;;;;;;;-2.15;100.00;97936.88;2641942;28;20738;-89
2022/11/20 02:50:39;;;;;;;46.55;18.95;;;;;;;-1.94;100.00;97937.16;2640950;28;20051;-90
2022/11/20 02:51:55;;;;;;;45.58;17.90;;;;;;;-2.00;100.00;97938.81;2641236;28;20414;-89
2022/11/20 02:53:11;;;;;;;45.38;16.95;;;;;;;-1.82;100.00;97939.88;2641027;28;20043;-92
2022/11/20 02:54:27;;;;;;;42.45;16.40;;;;;;;-1.93;100.00;97944.00;2640805;28;20050;-90
2022/11/20 02:55:42;;;;;;;44.70;16.55;;;;;;;-1.91;100.00;97929.50;2638882;28;20048;-90
2022/11/20 02:56:58;;;;;;;42.03;16.92;;;;;;;-1.82;100.00;97936.44;2638601;27;20048;-89
2022/11/20 02:58:14;;;;;;;41.95;16.23;;;;;;;-1.95;100.00;97938.88;2638618;28;20051;-90
2022/11/20 02:59:29;;;;;;;36.95;14.98;;;;;;;-1.89;100.00;97933.81;2638415;28;20164;-90
2022/11/20 03:00:44;;;;;;;46.38;17.25;;;;;;;-2.14;100.00;97936.03;2638817;28;20055;-91
2022/11/20 03:02:00;;;;;;;47.70;17.17;;;;;;;-2.05;100.00;97934.44;2639133;28;20052;-90
2022/11/20 03:03:16;;;;;;;43.53;17.63;;;;;;;-2.20;100.00;97935.06;2639090;28;20060;-91
2022/11/20 03:04:31;;;;;;;48.60;18.15;;;;;;;-2.10;100.00;97936.94;2638994;28;20044;-89
2022/11/20 03:05:47;;;;;;;46.00;17.23;;;;;;;-2.01;100.00;97931.06;2639240;28;20059;-90
2022/11/20 03:07:03;;;;;;;42.22;16.98;;;;;;;-1.97;100.00;97934.56;2639181;28;20055;-89
2022/11/20 03:08:19;;;;;;;43.97;15.90;;;;;;;-2.08;100.00;97931.84;2638612;28;20040;-90
2022/11/20 03:09:35;;;;;;;45.78;17.48;;;;;;;-1.99;100.00;97931.94;2638937;28;20155;-90
2022/11/20 03:10:50;;;;;;;48.85;17.73;;;;;;;-1.96;100.00;97933.72;2638808;28;20584;-88
2022/11/20 03:12:06;;;;;;;46.10;16.75;;;;;;;-1.87;100.00;97933.84;2638681;27;20507;-90
2022/11/20 03:13:22;;;;;;;44.25;16.55;;;;;;;-2.16;100.00;97930.00;2639092;28;20361;-89
2022/11/20 03:14:37;;;;;;;47.17;17.20;;;;;;;-2.14;100.00;97933.47;2638631;28;20130;-90
2022/11/20 03:15:53;;;;;;;41.45;16.27;;;;;;;-2.04;100.00;97928.47;2639528;28;20051;-90
2022/11/20 03:17:09;;;;;;;47.15;17.30;;;;;;;-1.78;100.00;97930.53;2638300;28;20044;-88
2022/11/20 03:18:28;;;;;;;42.55;16.40;;;;;;;-1.85;100.00;97933.00;2638497;28;20086;-89
2022/11/20 03:19:44;;;;;;;42.55;14.45;;;;;;;-1.88;100.00;97925.28;2638283;28;20047;-91
2022/11/20 03:20:59;;;;;;;42.70;16.42;;;;;;;-1.71;100.00;97927.19;2639052;28;20408;-89
2022/11/20 03:22:15;;;;;;;44.08;17.75;;;;;;;-1.66;100.00;97923.00;2638553;28;20048;-89
2022/11/20 03:23:32;;;;;;;41.70;16.17;;;;;;;-1.66;100.00;97920.44;2639024;28;20062;-89
2022/11/20 03:24:47;;;;;;;40.17;16.55;;;;;;;-1.67;100.00;97920.41;2638907;28;20063;-89
2022/11/20 03:26:14;;;;;;;41.22;17.13;;;;;;;-1.62;100.00;97921.31;2638843;28;20133;-91
2022/11/20 03:27:34;;;;;;;43.03;16.45;;;;;;;-1.63;100.00;97924.72;2638115;28;20039;-89
2022/11/20 03:28:58;;;;;;;44.28;17.40;;;;;;;-1.58;100.00;97929.06;2638059;28;20086;-90
2022/11/20 03:30:15;;;;;;;41.03;15.90;;;;;;;-1.75;100.00;97923.72;2638892;28;20112;-92
2022/11/20 03:31:35;;;;;;;42.83;16.38;;;;;;;-1.81;100.00;97936.47;2638680;28;20644;-89
2022/11/20 03:32:53;;;;;;;43.80;16.27;;;;;;;-1.86;100.00;97933.84;2638577;28;20052;-91
2022/11/20 03:34:11;;;;;;;47.33;18.35;;;;;;;-1.73;100.00;97934.88;2638696;28;20075;-89
2022/11/20 03:35:26;;;;;;;41.20;16.40;;;;;;;-1.63;100.00;97928.16;2638613;28;20055;-91
2022/11/20 03:36:42;;;;;;;41.60;17.35;;;;;;;-1.70;100.00;97934.03;2638676;28;20560;-89
2022/11/20 03:37:58;;;;;;;41.45;16.65;;;;;;;-1.91;100.00;97935.50;2638069;28;20048;-89
2022/11/20 03:39:14;;;;;;;40.38;16.42;;;;;;;-1.85;100.00;97940.69;2638348;28;20046;-91
2022/11/20 03:40:29;;;;;;;43.60;16.88;;;;;;;-1.77;100.00;97938.22;2638752;28;20044;-90
2022/11/20 03:41:45;;;;;;;43.05;18.08;;;;;;;-1.59;100.00;97937.63;2638155;28;20044;-89
2022/11/20 03:43:00;;;;;;;37.65;16.10;;;;;;;-1.52;100.00;97935.13;2638048;28;20039;-89
2022/11/20 03:44:16;;;;;;;49.50;18.02;;;;;;;-1.44;100.00;97933.50;2638638;28;20040;-90
2022/11/20 03:45:32;;;;;;;40.13;16.67;;;;;;;-1.56;100.00;97936.81;2638660;28;20529;-88
2022/11/20 03:46:47;;;;;;;45.33;17.30;;;;;;;-1.48;100.00;97939.47;2638272;28;20062;-91
2022/11/20 03:48:03;;;;;;;40.85;16.08;;;;;;;-1.48;100.00;97936.88;2638557;28;20074;-91
2022/11/20 03:49:19;;;;;;;43.10;16.10;;;;;;;-1.33;100.00;97941.31;2638081;28;20520;-91
2022/11/20 03:50:34;;;;;;;43.45;17.52;;;;;;;-1.32;100.00;97940.50;2638588;28;20043;-89
2022/11/20 03:51:50;;;;;;;51.25;18.25;;;;;;;-1.36;100.00;97941.28;2638679;28;20067;-91
2022/11/20 03:53:05;;;;;;;40.97;16.27;;;;;;;-1.40;100.00;97940.38;2638683;28;20066;-90
2022/11/20 03:54:21;;;;;;;49.42;18.27;;;;;;;-1.50;100.00;97936.00;2638288;28;20048;-89
2022/11/20 03:55:37;;;;;;;46.67;16.75;;;;;;;-1.46;100.00;97948.03;2638469;28;20112;-90
2022/11/20 03:56:52;;;;;;;44.33;17.13;;;;;;;-1.68;100.00;97947.75;2638632;28;20540;-90
2022/11/20 03:58:09;;;;;;;45.55;17.02;;;;;;;-1.58;100.00;97947.03;2637659;28;20146;-89
2022/11/20 03:59:24;;;;;;;45.15;17.38;;;;;;;-1.60;100.00;97946.16;2638475;28;20075;-89
2022/11/20 04:00:40;;;;;;;43.30;17.20;;;;;;;-1.46;100.00;97945.47;2638434;28;20043;-91
2022/11/20 04:01:55;;;;;;;42.03;17.48;;;;;;;-1.30;100.00;97951.66;2638310;27;20051;-90
2022/11/20 04:03:11;;;;;;;38.85;16.35;;;;;;;-1.16;100.00;97937.25;2638288;27;20055;-89
2022/11/20 04:04:27;;;;;;;45.70;17.27;;;;;;;-1.13;100.00;97951.81;2638378;28;20107;-89
2022/11/20 04:05:42;;;;;;;40.20;16.67;;;;;;;-1.06;100.00;97947.63;2637924;28;20562;-88
2022/11/20 04:06:58;;;;;;;40.58;16.88;;;;;;;-1.00;100.00;97947.69;2638318;28;20039;-90
2022/11/20 04:08:13;;;;;;;46.70;17.73;;;;;;;-1.03;100.00;97940.81;2637131;28;20047;-88
2022/11/20 04:09:29;;;;;;;45.15;17.33;;;;;;;-1.42;100.00;97947.22;2638142;28;20067;-90
2022/11/20 04:10:44;;;;;;;40.83;17.00;;;;;;;-1.51;100.00;97947.13;2638390;28;20047;-89
2022/11/20 04:12:00;;;;;;;43.70;16.38;;;;;;;-1.40;100.00;97947.25;2637856;28;20638;-91
2022/11/20 04:13:15;;;;;;;41.45;15.85;;;;;;;-1.25;100.00;97947.41;2638263;28;20047;-89
2022/11/20 04:14:31;;;;;;;46.40;17.63;;;;;;;-1.25;100.00;97944.84;2638352;28;20370;-90
2022/11/20 04:15:47;;;;;;;46.13;19.35;;;;;;;-1.33;100.00;97955.03;2638285;28;20059;-90
2022/11/20 04:17:03;;;;;;;44.80;17.00;;;;;;;-1.12;100.00;97950.97;2638016;28;20054;-90
2022/11/20 04:18:19;;;;;;;41.90;16.65;;;;;;;-1.21;100.00;97948.31;2637797;28;20458;-90
2022/11/20 04:19:35;;;;;;;45.60;17.20;;;;;;;-1.42;100.00;97944.66;2638086;28;20059;-91
2022/11/20 04:20:50;;;;;;;47.38;18.35;;;;;;;-1.32;100.00;97951.63;2637891;28;20047;-91
2022/11/20 04:22:06;;;;;;;42.03;16.88;;;;;;;-1.20;100.00;97950.91;2637957;28;20043;-91
2022/11/20 04:23:21;;;;;;;48.35;19.13;;;;;;;-1.19;100.00;97946.63;2637883;28;20606;-90
2022/11/20 04:24:37;;;;;;;49.75;18.88;;;;;;;-1.03;100.00;97948.50;2637789;28;20062;-89
2022/11/20 04:25:53;;;;;;;46.72;18.08;;;;;;;-1.04;100.00;97948.53;2637997;27;20039;-90
2022/11/20 04:27:08;;;;;;;42.65;17.58;;;;;;;-1.08;100.00;97949.31;2637710;28;20063;-89
2022/11/20 04:28:24;;;;;;;43.05;17.83;;;;;;;-1.04;100.00;97933.09;2637739;28;20047;-89
2022/11/20 04:29:40;;;;;;;42.03;17.75;;;;;;;-1.29;100.00;97936.25;2637719;28;20047;-91
2022/11/20 04:31:08;;;;;;;43.60;18.13;;;;;;;-1.07;100.00;97940.75;2637764;28;20196;-91
2022/11/20 04:32:24;;;;;;;42.20;17.10;;;;;;;-1.16;100.00;97941.53;2637875;28;20051;-89
2022/11/20 04:33:40;;;;;;;42.03;16.08;;;;;;;-0.92;100.00;97928.06;2637454;28;20048;-89
2022/11/20 04:34:56;;;;;;;44.03;17.80;;;;;;;-0.84;100.00;97937.56;2637783;28;20483;-90
2022/11/20 04:36:20;;;;;;;47.03;17.77;;;;;;;-0.83;100.00;97922.16;2637723;28;20054;-91
2022/11/20 04:37:35;;;;;;;44.08;16.98;;;;;;;-0.92;100.00;97927.22;2637968;28;20390;-90
2022/11/20 04:39:12;;;;;;;43.80;17.50;;;;;;;-0.81;100.00;97919.59;2637679;28;20056;-90
2022/11/20 04:40:28;;;;;;;41.83;17.42;;;;;;;-0.74;100.00;97914.53;2638012;28;20134;-91
2022/11/20 04:41:44;;;;;;;43.13;16.55;;;;;;;-0.69;100.00;97916.28;2637864;28;20048;-91
2022/11/20 04:42:59;;;;;;;45.20;18.05;;;;;;;-0.93;100.00;97912.63;2637395;28;20341;-90
2022/11/20 04:44:15;;;;;;;43.08;17.10;;;;;;;-1.20;100.00;97919.22;2638338;28;20054;-90
2022/11/20 04:45:31;;;;;;;42.95;17.88;;;;;;;-1.19;100.00;97913.25;2638408;28;20047;-89
2022/11/20 04:46:46;;;;;;;42.60;15.85;;;;;;;-1.19;100.00;97923.50;2638250;28;20334;-89
2022/11/20 04:48:02;;;;;;;40.80;16.33;;;;;;;-1.14;100.00;97906.44;2638003;28;20077;-89
2022/11/20 04:49:17;;;;;;;44.35;17.25;;;;;;;-0.90;100.00;97900.69;2638548;28;20067;-91
2022/11/20 04:50:33;;;;;;;45.50;17.30;;;;;;;-0.94;100.00;97898.91;2638543;28;20086;-89
2022/11/20 04:51:49;;;;;;;42.08;17.02;;;;;;;-0.97;100.00;97908.34;2638449;28;20047;-91
2022/11/20 04:53:04;;;;;;;40.20;17.35;;;;;;;-1.06;100.00;97907.38;2638500;28;20040;-90
2022/11/20 04:54:20;;;;;;;40.80;16.92;;;;;;;-0.93;100.00;97900.63;2638579;28;20054;-91
2022/11/20 04:55:36;;;;;;;40.60;17.40;;;;;;;-0.94;100.00;97900.66;2638281;28;20093;-91
2022/11/20 04:56:51;;;;;;;47.78;18.05;;;;;;;-1.08;100.00;97903.94;2638284;28;20055;-92
2022/11/20 04:58:07;;;;;;;45.92;17.83;;;;;;;-0.93;100.00;97890.34;2638524;28;20058;-91
2022/11/20 04:59:24;;;;;;;46.58;18.33;;;;;;;-0.86;100.00;97894.72;2638502;28;20688;-91
2022/11/20 05:00:40;;;;;;;38.33;16.48;;;;;;;-0.92;100.00;97888.66;2637754;28;20043;-88
2022/11/20 05:01:55;;;;;;;44.70;18.13;;;;;;;-1.02;100.00;97887.72;2638067;28;20048;-91
2022/11/20 05:03:11;;;;;;;42.00;17.88;;;;;;;-0.84;100.00;97883.59;2638299;28;20048;-91
2022/11/20 05:04:26;;;;;;;44.95;18.35;;;;;;;-0.86;100.00;97891.28;2638305;28;20082;-89
2022/11/20 05:05:42;;;;;;;44.25;17.35;;;;;;;-1.06;100.00;97888.53;2638282;28;20101;-90
2022/11/20 05:06:58;;;;;;;43.45;17.45;;;;;;;-1.07;100.00;97890.25;2637785;28;20054;-90
2022/11/20 05:08:13;;;;;;;46.15;16.77;;;;;;;-1.07;100.00;97892.81;2637322;28;20109;-90
2022/11/20 05:09:29;;;;;;;43.35;16.42;;;;;;;-1.21;100.00;97894.38;2637048;28;20055;-90
2022/11/20 05:10:45;;;;;;;45.25;17.58;;;;;;;-1.22;100.00;97910.66;2638229;28;20451;-90
2022/11/20 05:12:01;;;;;;;43.70;16.50;;;;;;;-1.16;100.00;97900.41;2637956;28;20054;-91
2022/11/20 05:13:16;;;;;;;41.08;16.52;;;;;;;-1.12;100.00;97903.88;2637854;28;20048;-91
2022/11/20 05:14:32;;;;;;;43.08;17.10;;;;;;;-1.12;100.00;97901.31;2637730;28;20052;-89
2022/11/20 05:15:48;;;;;;;40.05;17.75;;;;;;;-1.06;100.00;97896.22;2637640;28;20076;-90
2022/11/20 05:17:03;;;;;;;39.50;17.25;;;;;;;-1.07;100.00;97903.09;2638070;28;20044;-89
2022/11/20 05:18:19;;;;;;;48.53;18.40;;;;;;;-0.98;100.00;97889.47;2637867;28;20044;-90
2022/11/20 05:19:34;;;;;;;38.70;17.52;;;;;;;-0.74;100.00;97888.81;2637795;28;20044;-89
2022/11/20 05:20:55;;;;;;;47.33;18.70;;;;;;;-0.64;100.00;97888.91;2637854;28;20064;-90
2022/11/20 05:22:10;;;;;;;43.63;17.38;;;;;;;-0.61;100.00;97894.94;2637714;28;20433;-90
2022/11/20 05:23:26;;;;;;;36.30;16.65;;;;;;;-0.98;100.00;97898.88;2637963;28;20044;-89
2022/11/20 05:24:42;;;;;;;43.45;17.08;;;;;;;-1.03;100.00;97899.69;2637937;28;20058;-90
2022/11/20 05:25:58;;;;;;;43.70;17.23;;;;;;;-1.06;100.00;97901.38;2637505;28;20059;-91
2022/11/20 05:27:14;;;;;;;41.95;16.67;;;;;;;-0.91;100.00;97906.69;2637773;28;20390;-90
2022/11/20 05:28:30;;;;;;;42.15;18.55;;;;;;;-0.79;100.00;97905.03;2637647;28;20047;-90
2022/11/20 05:29:46;;;;;;;47.33;18.63;;;;;;;-0.63;100.00;97911.19;2637982;28;20054;-90
2022/11/20 05:31:13;;;;;;;39.35;17.00;;;;;;;-0.77;100.00;97904.22;2637745;28;20055;-90
2022/11/20 05:32:29;;;;;;;44.17;16.33;;;;;;;-1.34;100.00;97919.94;2637417;28;20077;-91
2022/11/20 05:33:44;;;;;;;36.60;15.30;;;;;;;-1.37;100.00;97927.59;2637623;28;20048;-90
2022/11/20 05:35:00;;;;;;;43.10;17.45;;;;;;;-1.20;100.00;97930.34;2637815;28;20048;-89
2022/11/20 05:36:16;;;;;;;46.03;17.98;;;;;;;-1.22;100.00;97934.59;2637575;28;20678;-90
2022/11/20 05:37:32;;;;;;;40.67;16.40;;;;;;;-1.04;100.00;97925.41;2637647;28;21094;-91
2022/11/20 05:38:47;;;;;;;42.72;15.32;;;;;;;-1.39;100.00;97928.44;2637622;28;20048;-89
2022/11/20 05:40:03;;;;;;;47.63;18.27;;;;;;;-1.11;100.00;97931.31;2637390;28;20054;-89
2022/11/20 05:41:20;;;;;;;45.97;17.05;;;;;;;-1.35;100.00;97927.59;2637558;28;20138;-90
2022/11/20 05:42:36;;;;;;;47.05;18.80;;;;;;;-1.00;100.00;97927.13;2637408;28;20098;-91
2022/11/20 05:43:51;;;;;;;46.20;18.05;;;;;;;-0.91;100.00;97918.66;2637668;28;20058;-88
2022/11/20 05:45:07;;;;;;;63.70;24.40;;;;;;;-0.83;100.00;97919.59;2637298;28;20047;-90
2022/11/20 05:46:23;;;;;;;52.25;21.90;;;;;;;-0.74;100.00;97919.66;2637605;28;20134;-91
2022/11/20 05:47:39;;;;;;;46.55;18.08;;;;;;;-0.60;100.00;97918.91;2637390;28;20050;-90
2022/11/20 05:48:55;;;;;;;42.35;18.10;;;;;;;-0.74;100.00;97918.81;2637672;28;20478;-90
2022/11/20 05:50:11;;;;;;;45.28;18.58;;;;;;;-0.81;100.00;97914.44;2636446;28;20107;-89
2022/11/20 05:51:26;;;;;;;39.55;17.33;;;;;;;-0.80;100.00;97914.47;2637666;28;20334;-90
2022/11/20 05:52:42;;;;;;;45.50;18.35;;;;;;;-1.13;100.00;97923.56;2639476;28;20494;-89
2022/11/20 05:53:58;;;;;;;49.78;19.08;;;;;;;-0.94;100.00;97916.06;2639615;28;20963;-90
2022/11/20 05:55:14;;;;;;;43.78;18.73;;;;;;;-0.79;100.00;97913.63;2639403;28;20052;-90